sensor_id;sensor_type;location;lat;lon;timestamp;P1;durP1;ratioP1;P2;durP2;ratioP2
11255;SDS011;5685;52.384;13.420;2023-05-07T00:00:20;72.43;;;39.90;;
11255;SDS011;5685;52.384;13.420;2023-05-07T00:03:24;72.57;;;39.80;;
11255;SDS011;5685;52.384;13.420;2023-05-07T00:06:27;72.57;;;39.80;;
11255;SDS011;5685;52.384;13.420;2023-05-07T00:09:29;72.03;;;39.70;;
11255;SDS011;5685;52.384;13.420;2023-05-07T00:12:31;72.20;;;39.93;;
11255;SDS011;5685;52.384;13.420;2023-05-07T00:15:34;72.23;;;39.70;;
11255;SDS011;5685;52.384;13.420;2023-05-07T00:18:38;72.50;;;39.93;;
11255;SDS011;5685;52.384;13.420;2023-05-07T00:21:40;72.27;;;39.70;;
11255;SDS011;5685;52.384;13.420;2023-05-07T00:24:42;73.13;;;40.13;;
11255;SDS011;5685;52.384;13.420;2023-05-07T00:27:45;72.17;;;39.70;;
11255;SDS011;5685;52.384;13.420;2023-05-07T00:30:47;72.00;;;39.67;;
11255;SDS011;5685;52.384;13.420;2023-05-07T00:33:51;71.77;;;39.53;;
11255;SDS011;5685;52.384;13.420;2023-05-07T00:36:53;72.43;;;39.90;;
11255;SDS011;5685;52.384;13.420;2023-05-07T00:39:55;72.13;;;39.77;;
11255;SDS011;5685;52.384;13.420;2023-05-07T00:42:58;72.50;;;39.90;;
11255;SDS011;5685;52.384;13.420;2023-05-07T00:46:00;72.20;;;39.77;;
11255;SDS011;5685;52.384;13.420;2023-05-07T00:49:04;72.17;;;39.60;;
11255;SDS011;5685;52.384;13.420;2023-05-07T00:52:07;72.00;;;39.70;;
11255;SDS011;5685;52.384;13.420;2023-05-07T00:55:10;72.43;;;39.63;;
11255;SDS011;5685;52.384;13.420;2023-05-07T00:58:14;72.30;;;39.77;;
11255;SDS011;5685;52.384;13.420;2023-05-07T01:01:16;72.13;;;39.70;;
11255;SDS011;5685;52.384;13.420;2023-05-07T01:04:20;72.40;;;39.80;;
11255;SDS011;5685;52.384;13.420;2023-05-07T01:07:22;72.23;;;39.77;;
11255;SDS011;5685;52.384;13.420;2023-05-07T01:10:25;71.97;;;39.73;;
11255;SDS011;5685;52.384;13.420;2023-05-07T01:13:30;72.40;;;39.77;;
11255;SDS011;5685;52.384;13.420;2023-05-07T01:16:33;72.43;;;39.80;;
11255;SDS011;5685;52.384;13.420;2023-05-07T01:19:37;72.07;;;39.60;;
11255;SDS011;5685;52.384;13.420;2023-05-07T01:22:40;71.93;;;39.60;;
11255;SDS011;5685;52.384;13.420;2023-05-07T01:25:43;72.37;;;39.83;;
11255;SDS011;5685;52.384;13.420;2023-05-07T01:28:45;72.10;;;39.57;;
11255;SDS011;5685;52.384;13.420;2023-05-07T01:31:47;72.07;;;39.60;;
11255;SDS011;5685;52.384;13.420;2023-05-07T01:34:50;72.40;;;39.80;;
11255;SDS011;5685;52.384;13.420;2023-05-07T01:37:55;72.30;;;39.67;;
11255;SDS011;5685;52.384;13.420;2023-05-07T01:40:58;72.87;;;40.07;;
11255;SDS011;5685;52.384;13.420;2023-05-07T01:44:00;72.27;;;39.80;;
11255;SDS011;5685;52.384;13.420;2023-05-07T01:47:03;72.30;;;39.77;;
11255;SDS011;5685;52.384;13.420;2023-05-07T01:50:06;72.00;;;39.60;;
11255;SDS011;5685;52.384;13.420;2023-05-07T01:53:11;71.90;;;39.50;;
11255;SDS011;5685;52.384;13.420;2023-05-07T01:56:13;72.27;;;39.70;;
11255;SDS011;5685;52.384;13.420;2023-05-07T01:59:16;71.90;;;39.53;;
11255;SDS011;5685;52.384;13.420;2023-05-07T02:02:18;71.67;;;39.53;;
11255;SDS011;5685;52.384;13.420;2023-05-07T02:05:20;72.33;;;39.67;;
11255;SDS011;5685;52.384;13.420;2023-05-07T02:08:24;72.17;;;39.70;;
11255;SDS011;5685;52.384;13.420;2023-05-07T02:11:26;72.23;;;39.80;;
11255;SDS011;5685;52.384;13.420;2023-05-07T02:14:29;72.63;;;39.97;;
11255;SDS011;5685;52.384;13.420;2023-05-07T02:17:31;72.63;;;39.77;;
11255;SDS011;5685;52.384;13.420;2023-05-07T02:20:34;71.67;;;39.40;;
11255;SDS011;5685;52.384;13.420;2023-05-07T02:23:37;72.30;;;39.83;;
11255;SDS011;5685;52.384;13.420;2023-05-07T02:26:40;72.20;;;39.60;;
11255;SDS011;5685;52.384;13.420;2023-05-07T02:29:42;72.13;;;39.57;;
11255;SDS011;5685;52.384;13.420;2023-05-07T02:32:45;72.40;;;39.73;;
11255;SDS011;5685;52.384;13.420;2023-05-07T02:35:47;72.00;;;39.50;;
11255;SDS011;5685;52.384;13.420;2023-05-07T02:38:51;72.03;;;39.50;;
11255;SDS011;5685;52.384;13.420;2023-05-07T02:41:53;71.93;;;39.50;;
11255;SDS011;5685;52.384;13.420;2023-05-07T02:44:55;71.60;;;39.30;;
11255;SDS011;5685;52.384;13.420;2023-05-07T02:47:58;71.97;;;39.50;;
11255;SDS011;5685;52.384;13.420;2023-05-07T02:51:00;71.90;;;39.40;;
11255;SDS011;5685;52.384;13.420;2023-05-07T02:54:04;72.07;;;39.53;;
11255;SDS011;5685;52.384;13.420;2023-05-07T02:57:07;72.70;;;39.90;;
11255;SDS011;5685;52.384;13.420;2023-05-07T03:00:13;72.53;;;39.87;;
11255;SDS011;5685;52.384;13.420;2023-05-07T03:03:15;72.83;;;40.00;;
11255;SDS011;5685;52.384;13.420;2023-05-07T03:06:18;71.67;;;39.40;;
11255;SDS011;5685;52.384;13.420;2023-05-07T03:09:22;71.93;;;39.53;;
11255;SDS011;5685;52.384;13.420;2023-05-07T03:12:24;72.20;;;39.63;;
11255;SDS011;5685;52.384;13.420;2023-05-07T03:15:26;73.13;;;40.43;;
11255;SDS011;5685;52.384;13.420;2023-05-07T03:18:28;71.83;;;39.47;;
11255;SDS011;5685;52.384;13.420;2023-05-07T03:21:31;71.93;;;39.60;;
11255;SDS011;5685;52.384;13.420;2023-05-07T03:24:36;71.87;;;39.53;;
11255;SDS011;5685;52.384;13.420;2023-05-07T03:27:38;72.00;;;39.47;;
11255;SDS011;5685;52.384;13.420;2023-05-07T03:30:41;72.27;;;39.77;;
11255;SDS011;5685;52.384;13.420;2023-05-07T03:33:50;72.20;;;39.67;;
11255;SDS011;5685;52.384;13.420;2023-05-07T03:36:53;72.13;;;39.70;;
11255;SDS011;5685;52.384;13.420;2023-05-07T03:39:57;72.80;;;40.00;;
11255;SDS011;5685;52.384;13.420;2023-05-07T03:42:59;72.10;;;39.67;;
11255;SDS011;5685;52.384;13.420;2023-05-07T03:46:02;72.23;;;39.80;;
11255;SDS011;5685;52.384;13.420;2023-05-07T03:49:04;72.00;;;39.57;;
11255;SDS011;5685;52.384;13.420;2023-05-07T03:52:07;72.00;;;39.40;;
11255;SDS011;5685;52.384;13.420;2023-05-07T03:55:10;72.07;;;39.70;;
11255;SDS011;5685;52.384;13.420;2023-05-07T03:58:13;72.03;;;39.57;;
11255;SDS011;5685;52.384;13.420;2023-05-07T04:01:15;72.33;;;39.60;;
11255;SDS011;5685;52.384;13.420;2023-05-07T04:04:17;72.07;;;39.50;;
11255;SDS011;5685;52.384;13.420;2023-05-07T04:07:20;72.63;;;39.83;;
11255;SDS011;5685;52.384;13.420;2023-05-07T04:10:24;72.73;;;39.90;;
11255;SDS011;5685;52.384;13.420;2023-05-07T04:13:26;72.07;;;39.50;;
11255;SDS011;5685;52.384;13.420;2023-05-07T04:16:29;72.80;;;39.70;;
11255;SDS011;5685;52.384;13.420;2023-05-07T04:19:32;72.17;;;39.40;;
11255;SDS011;5685;52.384;13.420;2023-05-07T04:22:36;71.73;;;39.27;;
11255;SDS011;5685;52.384;13.420;2023-05-07T04:25:40;72.47;;;39.70;;
11255;SDS011;5685;52.384;13.420;2023-05-07T04:28:43;72.23;;;39.63;;
11255;SDS011;5685;52.384;13.420;2023-05-07T04:31:45;72.37;;;39.67;;
11255;SDS011;5685;52.384;13.420;2023-05-07T04:34:47;72.47;;;39.63;;
11255;SDS011;5685;52.384;13.420;2023-05-07T04:37:50;72.73;;;39.90;;
11255;SDS011;5685;52.384;13.420;2023-05-07T04:40:53;72.47;;;39.87;;
11255;SDS011;5685;52.384;13.420;2023-05-07T04:43:56;72.57;;;39.70;;
11255;SDS011;5685;52.384;13.420;2023-05-07T04:46:58;72.20;;;39.57;;
11255;SDS011;5685;52.384;13.420;2023-05-07T04:50:01;72.47;;;39.60;;
11255;SDS011;5685;52.384;13.420;2023-05-07T04:53:03;72.77;;;39.80;;
11255;SDS011;5685;52.384;13.420;2023-05-07T04:56:07;73.10;;;39.90;;
11255;SDS011;5685;52.384;13.420;2023-05-07T04:59:09;72.37;;;39.63;;
11255;SDS011;5685;52.384;13.420;2023-05-07T05:02:12;72.20;;;39.50;;
11255;SDS011;5685;52.384;13.420;2023-05-07T05:05:14;72.07;;;39.47;;
11255;SDS011;5685;52.384;13.420;2023-05-07T05:08:16;72.13;;;39.50;;
11255;SDS011;5685;52.384;13.420;2023-05-07T05:11:20;72.30;;;39.63;;
11255;SDS011;5685;52.384;13.420;2023-05-07T05:14:22;71.97;;;39.43;;
11255;SDS011;5685;52.384;13.420;2023-05-07T05:17:25;72.27;;;39.50;;
11255;SDS011;5685;52.384;13.420;2023-05-07T05:20:27;72.40;;;39.80;;
11255;SDS011;5685;52.384;13.420;2023-05-07T05:23:29;72.60;;;39.73;;
11255;SDS011;5685;52.384;13.420;2023-05-07T05:26:33;72.53;;;39.70;;
11255;SDS011;5685;52.384;13.420;2023-05-07T05:29:35;72.60;;;39.67;;
11255;SDS011;5685;52.384;13.420;2023-05-07T05:32:38;72.37;;;39.53;;
11255;SDS011;5685;52.384;13.420;2023-05-07T05:35:40;72.50;;;39.63;;
11255;SDS011;5685;52.384;13.420;2023-05-07T05:38:43;72.70;;;39.73;;
11255;SDS011;5685;52.384;13.420;2023-05-07T05:41:47;72.50;;;39.70;;
11255;SDS011;5685;52.384;13.420;2023-05-07T05:44:49;72.33;;;39.63;;
11255;SDS011;5685;52.384;13.420;2023-05-07T05:47:51;72.50;;;39.60;;
11255;SDS011;5685;52.384;13.420;2023-05-07T05:50:54;72.40;;;39.67;;
11255;SDS011;5685;52.384;13.420;2023-05-07T05:53:56;72.50;;;39.70;;
11255;SDS011;5685;52.384;13.420;2023-05-07T05:57:00;71.60;;;39.07;;
11255;SDS011;5685;52.384;13.420;2023-05-07T06:00:04;72.57;;;39.57;;
11255;SDS011;5685;52.384;13.420;2023-05-07T06:03:07;72.33;;;39.40;;
11255;SDS011;5685;52.384;13.420;2023-05-07T06:06:10;72.30;;;39.50;;
11255;SDS011;5685;52.384;13.420;2023-05-07T06:09:14;72.53;;;39.60;;
11255;SDS011;5685;52.384;13.420;2023-05-07T06:12:18;72.77;;;39.77;;
11255;SDS011;5685;52.384;13.420;2023-05-07T06:15:20;72.50;;;39.67;;
11255;SDS011;5685;52.384;13.420;2023-05-07T06:18:23;72.53;;;39.70;;
11255;SDS011;5685;52.384;13.420;2023-05-07T06:21:25;73.10;;;40.00;;
11255;SDS011;5685;52.384;13.420;2023-05-07T06:24:27;73.23;;;39.97;;
11255;SDS011;5685;52.384;13.420;2023-05-07T06:27:31;72.23;;;39.47;;
11255;SDS011;5685;52.384;13.420;2023-05-07T06:30:33;72.70;;;39.90;;
11255;SDS011;5685;52.384;13.420;2023-05-07T06:33:36;72.23;;;39.57;;
11255;SDS011;5685;52.384;13.420;2023-05-07T06:36:38;72.17;;;39.50;;
11255;SDS011;5685;52.384;13.420;2023-05-07T06:39:40;72.37;;;39.70;;
11255;SDS011;5685;52.384;13.420;2023-05-07T06:42:44;72.87;;;39.80;;
11255;SDS011;5685;52.384;13.420;2023-05-07T06:45:46;72.47;;;39.57;;
11255;SDS011;5685;52.384;13.420;2023-05-07T06:48:49;72.67;;;39.60;;
11255;SDS011;5685;52.384;13.420;2023-05-07T06:51:52;72.33;;;39.53;;
11255;SDS011;5685;52.384;13.420;2023-05-07T06:54:54;72.80;;;39.80;;
11255;SDS011;5685;52.384;13.420;2023-05-07T06:57:58;72.27;;;39.60;;
11255;SDS011;5685;52.384;13.420;2023-05-07T07:01:01;72.57;;;39.67;;
11255;SDS011;5685;52.384;13.420;2023-05-07T07:04:03;72.33;;;39.50;;
11255;SDS011;5685;52.384;13.420;2023-05-07T07:07:05;72.63;;;39.70;;
11255;SDS011;5685;52.384;13.420;2023-05-07T07:10:08;72.47;;;39.57;;
11255;SDS011;5685;52.384;13.420;2023-05-07T07:13:12;72.20;;;39.53;;
11255;SDS011;5685;52.384;13.420;2023-05-07T07:16:14;72.63;;;39.67;;
11255;SDS011;5685;52.384;13.420;2023-05-07T07:19:17;72.37;;;39.50;;
11255;SDS011;5685;52.384;13.420;2023-05-07T07:22:20;72.33;;;39.53;;
11255;SDS011;5685;52.384;13.420;2023-05-07T07:25:22;72.80;;;39.70;;
11255;SDS011;5685;52.384;13.420;2023-05-07T07:28:26;72.70;;;39.77;;
11255;SDS011;5685;52.384;13.420;2023-05-07T07:31:28;72.53;;;39.63;;
11255;SDS011;5685;52.384;13.420;2023-05-07T07:34:31;72.47;;;39.60;;
11255;SDS011;5685;52.384;13.420;2023-05-07T07:37:33;72.47;;;39.63;;
11255;SDS011;5685;52.384;13.420;2023-05-07T07:40:35;72.57;;;39.60;;
11255;SDS011;5685;52.384;13.420;2023-05-07T07:43:39;72.60;;;39.77;;
11255;SDS011;5685;52.384;13.420;2023-05-07T07:46:42;72.37;;;39.47;;
11255;SDS011;5685;52.384;13.420;2023-05-07T07:49:44;72.83;;;39.77;;
11255;SDS011;5685;52.384;13.420;2023-05-07T07:52:46;72.80;;;39.80;;
11255;SDS011;5685;52.384;13.420;2023-05-07T07:55:49;72.53;;;39.60;;
11255;SDS011;5685;52.384;13.420;2023-05-07T07:58:52;72.30;;;39.33;;
11255;SDS011;5685;52.384;13.420;2023-05-07T08:01:54;72.30;;;39.50;;
11255;SDS011;5685;52.384;13.420;2023-05-07T08:04:57;72.60;;;39.60;;
11255;SDS011;5685;52.384;13.420;2023-05-07T08:07:59;72.80;;;39.90;;
11255;SDS011;5685;52.384;13.420;2023-05-07T08:11:02;72.60;;;39.60;;
11255;SDS011;5685;52.384;13.420;2023-05-07T08:14:05;72.47;;;39.73;;
11255;SDS011;5685;52.384;13.420;2023-05-07T08:17:07;71.77;;;39.23;;
11255;SDS011;5685;52.384;13.420;2023-05-07T08:20:10;73.20;;;39.90;;
11255;SDS011;5685;52.384;13.420;2023-05-07T08:23:13;73.20;;;40.00;;
11255;SDS011;5685;52.384;13.420;2023-05-07T08:26:15;72.30;;;39.40;;
11255;SDS011;5685;52.384;13.420;2023-05-07T08:29:19;72.53;;;39.53;;
11255;SDS011;5685;52.384;13.420;2023-05-07T08:32:21;72.97;;;39.80;;
11255;SDS011;5685;52.384;13.420;2023-05-07T08:35:23;72.30;;;39.40;;
11255;SDS011;5685;52.384;13.420;2023-05-07T08:38:27;72.30;;;39.40;;
11255;SDS011;5685;52.384;13.420;2023-05-07T08:41:30;72.90;;;39.73;;
11255;SDS011;5685;52.384;13.420;2023-05-07T08:44:34;72.90;;;39.70;;
11255;SDS011;5685;52.384;13.420;2023-05-07T08:47:42;72.53;;;39.60;;
11255;SDS011;5685;52.384;13.420;2023-05-07T08:50:45;72.73;;;39.67;;
11255;SDS011;5685;52.384;13.420;2023-05-07T08:53:48;72.50;;;39.57;;
11255;SDS011;5685;52.384;13.420;2023-05-07T08:56:50;72.80;;;39.70;;
11255;SDS011;5685;52.384;13.420;2023-05-07T08:59:54;72.63;;;39.67;;
11255;SDS011;5685;52.384;13.420;2023-05-07T09:02:57;72.53;;;39.53;;
11255;SDS011;5685;52.384;13.420;2023-05-07T09:05:59;72.43;;;39.50;;
11255;SDS011;5685;52.384;13.420;2023-05-07T09:09:01;72.90;;;39.70;;
11255;SDS011;5685;52.384;13.420;2023-05-07T09:12:05;72.30;;;39.47;;
11255;SDS011;5685;52.384;13.420;2023-05-07T09:15:10;72.37;;;39.53;;
11255;SDS011;5685;52.384;13.420;2023-05-07T09:18:13;72.40;;;39.73;;
11255;SDS011;5685;52.384;13.420;2023-05-07T09:21:15;72.90;;;39.77;;
11255;SDS011;5685;52.384;13.420;2023-05-07T09:24:18;72.47;;;39.63;;
11255;SDS011;5685;52.384;13.420;2023-05-07T09:27:20;73.23;;;39.90;;
11255;SDS011;5685;52.384;13.420;2023-05-07T09:30:24;72.50;;;39.80;;
11255;SDS011;5685;52.384;13.420;2023-05-07T09:33:29;72.33;;;39.67;;
11255;SDS011;5685;52.384;13.420;2023-05-07T09:36:31;72.33;;;39.53;;
11255;SDS011;5685;52.384;13.420;2023-05-07T09:39:40;72.50;;;39.60;;
11255;SDS011;5685;52.384;13.420;2023-05-07T09:42:43;72.30;;;39.60;;
11255;SDS011;5685;52.384;13.420;2023-05-07T09:45:48;72.47;;;39.70;;
11255;SDS011;5685;52.384;13.420;2023-05-07T09:48:51;72.57;;;39.67;;
11255;SDS011;5685;52.384;13.420;2023-05-07T09:51:54;72.13;;;39.50;;
11255;SDS011;5685;52.384;13.420;2023-05-07T09:54:57;72.40;;;39.63;;
11255;SDS011;5685;52.384;13.420;2023-05-07T09:58:00;73.33;;;40.20;;
11255;SDS011;5685;52.384;13.420;2023-05-07T10:01:05;72.33;;;39.63;;
11255;SDS011;5685;52.384;13.420;2023-05-07T10:04:07;72.27;;;39.60;;
11255;SDS011;5685;52.384;13.420;2023-05-07T10:07:10;72.60;;;39.67;;
11255;SDS011;5685;52.384;13.420;2023-05-07T10:10:12;72.40;;;39.63;;
11255;SDS011;5685;52.384;13.420;2023-05-07T10:13:16;72.57;;;39.63;;
11255;SDS011;5685;52.384;13.420;2023-05-07T10:16:20;72.33;;;39.60;;
11255;SDS011;5685;52.384;13.420;2023-05-07T10:19:23;72.50;;;39.60;;
11255;SDS011;5685;52.384;13.420;2023-05-07T10:22:25;72.57;;;39.63;;
11255;SDS011;5685;52.384;13.420;2023-05-07T10:25:28;72.33;;;39.50;;
11255;SDS011;5685;52.384;13.420;2023-05-07T10:28:33;72.57;;;39.57;;
11255;SDS011;5685;52.384;13.420;2023-05-07T10:31:42;72.80;;;39.83;;
11255;SDS011;5685;52.384;13.420;2023-05-07T10:34:49;72.67;;;39.73;;
11255;SDS011;5685;52.384;13.420;2023-05-07T10:37:52;72.50;;;39.67;;
11255;SDS011;5685;52.384;13.420;2023-05-07T10:40:55;72.40;;;39.70;;
11255;SDS011;5685;52.384;13.420;2023-05-07T10:43:57;73.03;;;40.00;;
11255;SDS011;5685;52.384;13.420;2023-05-07T10:47:07;72.60;;;39.67;;
11255;SDS011;5685;52.384;13.420;2023-05-07T10:50:22;72.17;;;39.53;;
11255;SDS011;5685;52.384;13.420;2023-05-07T10:53:25;72.53;;;39.80;;
11255;SDS011;5685;52.384;13.420;2023-05-07T10:56:28;72.50;;;39.73;;
11255;SDS011;5685;52.384;13.420;2023-05-07T10:59:34;72.80;;;39.80;;
11255;SDS011;5685;52.384;13.420;2023-05-07T11:06:11;72.20;;;39.67;;
11255;SDS011;5685;52.384;13.420;2023-05-07T11:09:13;72.33;;;39.60;;
11255;SDS011;5685;52.384;13.420;2023-05-07T11:12:16;71.83;;;39.37;;
11255;SDS011;5685;52.384;13.420;2023-05-07T11:18:46;71.90;;;39.40;;
11255;SDS011;5685;52.384;13.420;2023-05-07T11:21:50;72.57;;;39.80;;
11255;SDS011;5685;52.384;13.420;2023-05-07T11:24:54;72.77;;;39.77;;
11255;SDS011;5685;52.384;13.420;2023-05-07T11:27:56;72.77;;;39.83;;
11255;SDS011;5685;52.384;13.420;2023-05-07T11:31:05;72.80;;;39.87;;
11255;SDS011;5685;52.384;13.420;2023-05-07T11:34:08;72.73;;;39.83;;
11255;SDS011;5685;52.384;13.420;2023-05-07T11:37:12;72.27;;;39.63;;
11255;SDS011;5685;52.384;13.420;2023-05-07T11:40:18;72.93;;;39.83;;
11255;SDS011;5685;52.384;13.420;2023-05-07T11:43:20;72.47;;;39.70;;
11255;SDS011;5685;52.384;13.420;2023-05-07T11:46:23;72.40;;;39.67;;
11255;SDS011;5685;52.384;13.420;2023-05-07T11:49:25;71.97;;;39.50;;
11255;SDS011;5685;52.384;13.420;2023-05-07T11:52:31;74.33;;;42.20;;
11255;SDS011;5685;52.384;13.420;2023-05-07T11:55:33;72.33;;;39.70;;
11255;SDS011;5685;52.384;13.420;2023-05-07T11:58:35;72.60;;;39.73;;
11255;SDS011;5685;52.384;13.420;2023-05-07T12:01:38;72.60;;;39.83;;
11255;SDS011;5685;52.384;13.420;2023-05-07T12:04:40;72.67;;;39.90;;
11255;SDS011;5685;52.384;13.420;2023-05-07T12:07:44;72.47;;;39.70;;
11255;SDS011;5685;52.384;13.420;2023-05-07T12:10:47;72.43;;;39.83;;
11255;SDS011;5685;52.384;13.420;2023-05-07T12:13:50;72.57;;;39.80;;
11255;SDS011;5685;52.384;13.420;2023-05-07T12:16:52;72.33;;;39.60;;
11255;SDS011;5685;52.384;13.420;2023-05-07T12:19:55;72.83;;;39.97;;
11255;SDS011;5685;52.384;13.420;2023-05-07T12:22:58;73.20;;;40.13;;
11255;SDS011;5685;52.384;13.420;2023-05-07T12:26:01;73.17;;;40.27;;
11255;SDS011;5685;52.384;13.420;2023-05-07T12:29:03;72.70;;;40.00;;
11255;SDS011;5685;52.384;13.420;2023-05-07T12:32:06;72.60;;;39.80;;
11255;SDS011;5685;52.384;13.420;2023-05-07T12:35:08;72.77;;;40.00;;
11255;SDS011;5685;52.384;13.420;2023-05-07T12:38:12;71.93;;;39.67;;
11255;SDS011;5685;52.384;13.420;2023-05-07T12:41:15;72.73;;;40.03;;
11255;SDS011;5685;52.384;13.420;2023-05-07T12:44:18;73.30;;;40.33;;
11255;SDS011;5685;52.384;13.420;2023-05-07T12:47:20;72.47;;;39.80;;
11255;SDS011;5685;52.384;13.420;2023-05-07T12:50:23;72.63;;;39.90;;
11255;SDS011;5685;52.384;13.420;2023-05-07T12:53:26;72.20;;;39.70;;
11255;SDS011;5685;52.384;13.420;2023-05-07T12:56:30;72.73;;;39.90;;
11255;SDS011;5685;52.384;13.420;2023-05-07T12:59:33;72.67;;;39.97;;
11255;SDS011;5685;52.384;13.420;2023-05-07T13:02:37;72.57;;;39.83;;
11255;SDS011;5685;52.384;13.420;2023-05-07T13:05:39;72.67;;;40.00;;
11255;SDS011;5685;52.384;13.420;2023-05-07T13:08:43;72.20;;;39.77;;
11255;SDS011;5685;52.384;13.420;2023-05-07T13:11:46;72.43;;;39.80;;
11255;SDS011;5685;52.384;13.420;2023-05-07T13:14:48;72.67;;;39.90;;
11255;SDS011;5685;52.384;13.420;2023-05-07T13:17:50;72.87;;;40.00;;
11255;SDS011;5685;52.384;13.420;2023-05-07T13:20:52;73.00;;;40.10;;
11255;SDS011;5685;52.384;13.420;2023-05-07T13:23:56;72.77;;;40.13;;
11255;SDS011;5685;52.384;13.420;2023-05-07T13:26:59;72.97;;;40.13;;
11255;SDS011;5685;52.384;13.420;2023-05-07T13:30:01;72.60;;;40.03;;
11255;SDS011;5685;52.384;13.420;2023-05-07T13:33:03;72.70;;;40.13;;
11255;SDS011;5685;52.384;13.420;2023-05-07T13:36:06;73.10;;;40.37;;
11255;SDS011;5685;52.384;13.420;2023-05-07T13:39:10;72.57;;;39.87;;
11255;SDS011;5685;52.384;13.420;2023-05-07T13:42:13;73.20;;;40.20;;
11255;SDS011;5685;52.384;13.420;2023-05-07T13:45:15;73.37;;;40.27;;
11255;SDS011;5685;52.384;13.420;2023-05-07T13:48:17;72.70;;;40.13;;
11255;SDS011;5685;52.384;13.420;2023-05-07T13:51:20;71.97;;;39.77;;
11255;SDS011;5685;52.384;13.420;2023-05-07T13:54:24;72.53;;;39.93;;
11255;SDS011;5685;52.384;13.420;2023-05-07T13:57:26;72.50;;;39.90;;
11255;SDS011;5685;52.384;13.420;2023-05-07T14:00:29;73.07;;;40.20;;
11255;SDS011;5685;52.384;13.420;2023-05-07T14:03:31;73.60;;;40.43;;
11255;SDS011;5685;52.384;13.420;2023-05-07T14:06:34;72.87;;;40.13;;
11255;SDS011;5685;52.384;13.420;2023-05-07T14:09:37;72.77;;;40.13;;
11255;SDS011;5685;52.384;13.420;2023-05-07T14:12:40;72.57;;;40.03;;
11255;SDS011;5685;52.384;13.420;2023-05-07T14:15:42;72.97;;;40.13;;
11255;SDS011;5685;52.384;13.420;2023-05-07T14:18:46;73.17;;;40.23;;
11255;SDS011;5685;52.384;13.420;2023-05-07T14:21:48;72.90;;;40.20;;
11255;SDS011;5685;52.384;13.420;2023-05-07T14:24:52;72.87;;;40.17;;
11255;SDS011;5685;52.384;13.420;2023-05-07T14:27:54;73.23;;;40.47;;
11255;SDS011;5685;52.384;13.420;2023-05-07T14:30:57;72.93;;;40.27;;
11255;SDS011;5685;52.384;13.420;2023-05-07T14:33:59;72.53;;;40.00;;
11255;SDS011;5685;52.384;13.420;2023-05-07T14:37:02;73.23;;;40.53;;
11255;SDS011;5685;52.384;13.420;2023-05-07T14:40:07;73.10;;;40.43;;
11255;SDS011;5685;52.384;13.420;2023-05-07T14:43:10;73.60;;;40.60;;
11255;SDS011;5685;52.384;13.420;2023-05-07T14:46:12;73.30;;;40.60;;
11255;SDS011;5685;52.384;13.420;2023-05-07T14:49:15;72.83;;;40.30;;
11255;SDS011;5685;52.384;13.420;2023-05-07T14:52:18;73.10;;;40.33;;
11255;SDS011;5685;52.384;13.420;2023-05-07T14:55:21;73.37;;;40.50;;
11255;SDS011;5685;52.384;13.420;2023-05-07T14:58:24;73.67;;;40.60;;
11255;SDS011;5685;52.384;13.420;2023-05-07T15:01:26;73.17;;;40.40;;
11255;SDS011;5685;52.384;13.420;2023-05-07T15:04:28;72.83;;;40.23;;
11255;SDS011;5685;52.384;13.420;2023-05-07T15:07:31;73.63;;;40.63;;
11255;SDS011;5685;52.384;13.420;2023-05-07T15:10:36;73.10;;;40.33;;
11255;SDS011;5685;52.384;13.420;2023-05-07T15:13:41;73.20;;;40.37;;
11255;SDS011;5685;52.384;13.420;2023-05-07T15:16:43;73.40;;;40.47;;
11255;SDS011;5685;52.384;13.420;2023-05-07T15:19:46;73.60;;;40.67;;
11255;SDS011;5685;52.384;13.420;2023-05-07T15:22:48;73.50;;;40.53;;
11255;SDS011;5685;52.384;13.420;2023-05-07T15:25:52;72.33;;;39.93;;
11255;SDS011;5685;52.384;13.420;2023-05-07T15:28:54;73.23;;;40.43;;
11255;SDS011;5685;52.384;13.420;2023-05-07T15:31:57;73.43;;;40.53;;
11255;SDS011;5685;52.384;13.420;2023-05-07T15:34:59;73.27;;;40.47;;
11255;SDS011;5685;52.384;13.420;2023-05-07T15:38:02;73.27;;;40.47;;
11255;SDS011;5685;52.384;13.420;2023-05-07T15:41:06;72.83;;;40.23;;
11255;SDS011;5685;52.384;13.420;2023-05-07T15:44:09;73.57;;;40.90;;
11255;SDS011;5685;52.384;13.420;2023-05-07T15:47:11;72.63;;;40.20;;
11255;SDS011;5685;52.384;13.420;2023-05-07T15:50:14;72.80;;;40.23;;
11255;SDS011;5685;52.384;13.420;2023-05-07T15:53:17;73.17;;;40.40;;
11255;SDS011;5685;52.384;13.420;2023-05-07T15:56:20;73.17;;;40.43;;
11255;SDS011;5685;52.384;13.420;2023-05-07T15:59:24;73.63;;;40.60;;
11255;SDS011;5685;52.384;13.420;2023-05-07T16:02:27;73.40;;;40.53;;
11255;SDS011;5685;52.384;13.420;2023-05-07T16:05:29;73.10;;;40.47;;
11255;SDS011;5685;52.384;13.420;2023-05-07T16:08:31;72.97;;;40.37;;
11255;SDS011;5685;52.384;13.420;2023-05-07T16:11:35;73.07;;;40.47;;
11255;SDS011;5685;52.384;13.420;2023-05-07T16:14:37;72.90;;;40.37;;
11255;SDS011;5685;52.384;13.420;2023-05-07T16:17:40;73.07;;;40.43;;
11255;SDS011;5685;52.384;13.420;2023-05-07T16:20:42;73.37;;;40.53;;
11255;SDS011;5685;52.384;13.420;2023-05-07T16:23:44;73.10;;;40.40;;
11255;SDS011;5685;52.384;13.420;2023-05-07T16:26:48;73.70;;;40.70;;
11255;SDS011;5685;52.384;13.420;2023-05-07T16:29:50;73.07;;;40.37;;
11255;SDS011;5685;52.384;13.420;2023-05-07T16:32:53;73.47;;;40.53;;
11255;SDS011;5685;52.384;13.420;2023-05-07T16:35:55;73.70;;;40.67;;
11255;SDS011;5685;52.384;13.420;2023-05-07T16:38:58;73.57;;;40.70;;
11255;SDS011;5685;52.384;13.420;2023-05-07T16:42:01;73.00;;;40.47;;
11255;SDS011;5685;52.384;13.420;2023-05-07T16:45:04;73.40;;;40.50;;
11255;SDS011;5685;52.384;13.420;2023-05-07T16:48:07;73.47;;;40.60;;
11255;SDS011;5685;52.384;13.420;2023-05-07T16:51:09;73.67;;;40.73;;
11255;SDS011;5685;52.384;13.420;2023-05-07T16:54:12;74.47;;;41.13;;
11255;SDS011;5685;52.384;13.420;2023-05-07T16:57:15;73.47;;;40.70;;
11255;SDS011;5685;52.384;13.420;2023-05-07T17:00:18;72.90;;;40.33;;
11255;SDS011;5685;52.384;13.420;2023-05-07T17:03:20;73.03;;;40.40;;
11255;SDS011;5685;52.384;13.420;2023-05-07T17:06:22;73.60;;;40.60;;
11255;SDS011;5685;52.384;13.420;2023-05-07T17:09:25;73.27;;;40.53;;
11255;SDS011;5685;52.384;13.420;2023-05-07T17:12:29;73.43;;;40.57;;
11255;SDS011;5685;52.384;13.420;2023-05-07T17:15:31;73.07;;;40.37;;
11255;SDS011;5685;52.384;13.420;2023-05-07T17:18:34;73.07;;;40.50;;
11255;SDS011;5685;52.384;13.420;2023-05-07T17:21:36;73.57;;;40.67;;
11255;SDS011;5685;52.384;13.420;2023-05-07T17:24:38;73.97;;;40.87;;
11255;SDS011;5685;52.384;13.420;2023-05-07T17:27:42;73.00;;;40.47;;
11255;SDS011;5685;52.384;13.420;2023-05-07T17:30:44;73.30;;;40.57;;
11255;SDS011;5685;52.384;13.420;2023-05-07T17:33:47;74.07;;;40.90;;
11255;SDS011;5685;52.384;13.420;2023-05-07T17:36:49;72.63;;;40.20;;
11255;SDS011;5685;52.384;13.420;2023-05-07T17:39:51;73.77;;;40.73;;
11255;SDS011;5685;52.384;13.420;2023-05-07T17:42:56;73.53;;;40.67;;
11255;SDS011;5685;52.384;13.420;2023-05-07T17:45:58;74.10;;;40.83;;
11255;SDS011;5685;52.384;13.420;2023-05-07T17:49:02;73.03;;;40.40;;
11255;SDS011;5685;52.384;13.420;2023-05-07T17:52:04;72.93;;;40.40;;
11255;SDS011;5685;52.384;13.420;2023-05-07T17:55:06;73.47;;;40.57;;